Time;durP1;ratioP1;P1;durP2;ratioP2;P2;SDS_P1;SDS_P2;PMS_P1;PMS_P2;Temp;Humidity;BMP_temperature;BMP_pressure;BME280_temperature;BME280_humidity;BME280_pressure;Samples;Min_cycle;Max_cycle;Signal;HPM_P1;HPM_P2
2021/07/17 00:03:29;;;;;;;3.45;2.65;;;;;;;;;;6206404;23;20751;-96
2021/07/17 00:09:31;;;;;;;;;;;;;;;;;;;;;
2021/07/17 00:19:01;;;;;;;3.85;2.88;;;;;;;;;;6206297;23;20371;-96
2021/07/17 00:25:27;;;;;;;3.10;2.60;;;;;;;;;;6191928;23;20363;-96
2021/07/17 00:28:11;;;;;;;2.78;2.58;;;;;;;;;;6223919;23;20406;-95
2021/07/17 00:31:22;;;;;;;2.60;2.40;;;;;;;;;;6234973;23;20338;-96
2021/07/17 00:34:08;;;;;;;3.33;2.30;;;;;;;;;;6209362;23;20366;-96
2021/07/17 00:36:45;;;;;;;3.20;2.27;;;;;;;;;;6232154;23;20384;-96
2021/07/17 00:42:18;;;;;;;2.40;2.13;;;;;;;;;;6232068;23;20401;-96
2021/07/17 00:47:41;;;;;;;2.20;1.98;;;;;;;;;;6228776;23;20368;-96
2021/07/17 00:50:23;;;;;;;3.65;2.20;;;;;;;;;;6231241;23;20396;-96
2021/07/17 00:52:52;;;;;;;2.30;2.10;;;;;;;;;;6231338;23;20377;-96
2021/07/17 00:58:27;;;;;;;2.65;1.98;;;;;;;;;;6223639;23;20377;-96
2021/07/17 01:04:39;;;;;;;2.22;2.00;;;;;;;;;;6226579;23;20369;-96
2021/07/17 01:07:08;;;;;;;3.10;2.03;;;;;;;;;;6226295;23;20911;-96
2021/07/17 01:09:36;;;;;;;2.67;1.92;;;;;;;;;;6215992;23;20862;-96
2021/07/17 01:12:11;;;;;;;3.25;2.00;;;;;;;;;;6214404;23;20372;-96
2021/07/17 01:14:42;;;;;;;4.13;2.35;;;;;;;;;;6214997;23;20464;-95
2021/07/17 01:17:12;;;;;;;1.95;1.80;;;;;;;;;;6214643;23;20369;-95
2021/07/17 01:19:42;;;;;;;3.28;2.25;;;;;;;;;;6221764;23;20373;-96
2021/07/17 01:22:11;;;;;;;2.80;2.10;;;;;;;;;;6234277;23;20350;-95
2021/07/17 01:24:47;;;;;;;2.42;2.00;;;;;;;;;;6240170;23;20373;-95
2021/07/17 01:27:16;;;;;;;2.30;2.10;;;;;;;;;;6240856;23;20364;-95
2021/07/17 01:29:44;;;;;;;2.42;1.98;;;;;;;;;;6228604;23;20374;-96
2021/07/17 01:32:11;;;;;;;3.43;2.20;;;;;;;;;;6218379;23;20417;-96
2021/07/17 01:34:38;;;;;;;3.03;2.00;;;;;;;;;;6218825;23;20378;-95
2021/07/17 01:37:08;;;;;;;2.40;2.00;;;;;;;;;;6220690;23;20465;-95
2021/07/17 01:39:36;;;;;;;2.25;1.90;;;;;;;;;;6221895;23;20773;-95
2021/07/17 01:42:09;;;;;;;2.42;1.90;;;;;;;;;;6217043;23;20374;-95
2021/07/17 01:44:44;;;;;;;3.13;2.38;;;;;;;;;;6219733;23;20374;-96
2021/07/17 01:47:17;;;;;;;2.47;2.00;;;;;;;;;;6200847;23;20366;-96
2021/07/17 01:49:44;;;;;;;2.95;2.25;;;;;;;;;;6215395;23;20374;-95
2021/07/17 01:52:14;;;;;;;3.25;2.08;;;;;;;;;;6214276;23;20695;-95
2021/07/17 01:54:43;;;;;;;3.50;2.20;;;;;;;;;;6214056;23;20369;-96
2021/07/17 01:57:15;;;;;;;2.30;2.10;;;;;;;;;;6215499;23;20397;-96
2021/07/17 01:59:49;;;;;;;2.75;2.38;;;;;;;;;;6214570;23;20365;-96
2021/07/17 02:02:18;;;;;;;2.25;2.10;;;;;;;;;;6214582;23;20370;-96
2021/07/17 02:04:47;;;;;;;2.30;2.10;;;;;;;;;;6214309;23;20676;-96
2021/07/17 02:07:14;;;;;;;2.17;1.98;;;;;;;;;;6214303;23;20457;-96
2021/07/17 02:09:44;;;;;;;2.37;1.80;;;;;;;;;;6214644;23;20456;-96
2021/07/17 02:12:17;;;;;;;2.13;1.93;;;;;;;;;;6214450;23;20923;-96
2021/07/17 02:14:49;;;;;;;2.47;1.77;;;;;;;;;;6214877;23;20374;-96
2021/07/17 02:17:20;;;;;;;4.32;1.90;;;;;;;;;;6215948;23;20432;-96
2021/07/17 02:19:49;;;;;;;2.58;1.80;;;;;;;;;;6215140;23;20378;-96
2021/07/17 02:22:16;;;;;;;3.38;1.80;;;;;;;;;;6214913;23;20373;-96
2021/07/17 02:24:54;;;;;;;2.50;1.80;;;;;;;;;;6219363;23;20369;-96
2021/07/17 02:27:21;;;;;;;3.15;1.73;;;;;;;;;;6217053;23;20374;-95
2021/07/17 02:32:53;;;;;;;2.10;1.60;;;;;;;;;;6227257;23;20370;-96
2021/07/17 02:35:24;;;;;;;1.67;1.40;;;;;;;;;;6221031;23;20388;-96
2021/07/17 02:37:54;;;;;;;2.60;1.50;;;;;;;;;;6223017;23;20369;-96
2021/07/17 02:40:23;;;;;;;2.17;1.65;;;;;;;;;;6217710;23;20370;-96
2021/07/17 02:42:56;;;;;;;2.08;1.52;;;;;;;;;;6217248;23;20381;-96
2021/07/17 02:45:23;;;;;;;2.28;1.48;;;;;;;;;;6217024;23;20372;-96
2021/07/17 02:47:58;;;;;;;1.58;1.40;;;;;;;;;;6216550;23;20366;-96
2021/07/17 02:50:28;;;;;;;1.63;1.52;;;;;;;;;;6216651;23;20377;-96
2021/07/17 02:52:59;;;;;;;2.10;1.60;;;;;;;;;;6216477;23;20746;-96
2021/07/17 02:55:32;;;;;;;2.78;1.65;;;;;;;;;;6215309;23;20409;-96
2021/07/17 02:58:05;;;;;;;1.88;1.48;;;;;;;;;;6215790;23;20370;-96
2021/07/17 03:00:35;;;;;;;1.75;1.65;;;;;;;;;;6190283;23;20748;-96
2021/07/17 03:03:04;;;;;;;1.92;1.50;;;;;;;;;;6216468;23;20405;-96
2021/07/17 03:05:34;;;;;;;1.98;1.60;;;;;;;;;;6216108;23;20370;-96
2021/07/17 03:08:01;;;;;;;1.60;1.50;;;;;;;;;;6215563;23;20444;-96
2021/07/17 03:10:35;;;;;;;2.92;1.75;;;;;;;;;;6217075;23;20377;-96
2021/07/17 03:13:17;;;;;;;2.63;1.40;;;;;;;;;;6215110;23;20380;-96
2021/07/17 03:15:50;;;;;;;2.35;1.60;;;;;;;;;;6212767;23;20374;-96
2021/07/17 03:18:17;;;;;;;2.60;1.80;;;;;;;;;;6215215;23;20370;-96
2021/07/17 03:20:54;;;;;;;2.47;1.58;;;;;;;;;;6216542;23;20378;-96
2021/07/17 03:23:27;;;;;;;2.90;1.70;;;;;;;;;;6215445;23;20835;-96
2021/07/17 03:26:06;;;;;;;2.03;1.70;;;;;;;;;;6214546;23;20462;-96
2021/07/17 03:28:39;;;;;;;2.22;1.60;;;;;;;;;;6216318;23;20397;-95
2021/07/17 03:33:49;;;;;;;1.90;1.70;;;;;;;;;;6211565;23;20861;-96
2021/07/17 03:36:19;;;;;;;3.38;1.90;;;;;;;;;;6215226;23;20388;-96
2021/07/17 03:38:46;;;;;;;3.17;1.88;;;;;;;;;;6215442;23;20369;-96
2021/07/17 03:41:16;;;;;;;2.33;1.70;;;;;;;;;;6213744;23;20373;-96
2021/07/17 03:43:53;;;;;;;4.10;1.70;;;;;;;;;;6216138;23;20428;-96
2021/07/17 03:46:20;;;;;;;2.40;1.80;;;;;;;;;;6214605;23;20374;-96
2021/07/17 03:48:47;;;;;;;2.40;1.80;;;;;;;;;;6214790;23;20463;-96
2021/07/17 03:51:17;;;;;;;2.83;1.88;;;;;;;;;;6214258;23;20672;-96
2021/07/17 03:53:44;;;;;;;3.25;2.25;;;;;;;;;;6214371;23;20378;-96
2021/07/17 03:56:15;;;;;;;2.63;1.92;;;;;;;;;;6215258;23;20388;-96
2021/07/17 03:58:42;;;;;;;2.65;2.03;;;;;;;;;;6213247;23;20374;-96
2021/07/17 04:01:09;;;;;;;2.13;1.80;;;;;;;;;;6213454;23;20562;-96
2021/07/17 04:03:36;;;;;;;2.65;1.80;;;;;;;;;;6213508;23;20374;-96
2021/07/17 04:06:03;;;;;;;2.38;1.75;;;;;;;;;;6212808;23;20429;-96
2021/07/17 04:08:30;;;;;;;2.08;1.80;;;;;;;;;;6213408;23;20380;-96
2021/07/17 04:11:00;;;;;;;2.83;1.70;;;;;;;;;;6212086;23;20453;-95
2021/07/17 04:13:30;;;;;;;2.33;1.58;;;;;;;;;;6213236;23;20370;-96
2021/07/17 04:16:00;;;;;;;2.37;1.70;;;;;;;;;;6212715;23;20676;-96
2021/07/17 04:18:40;;;;;;;2.85;1.70;;;;;;;;;;6213614;23;20374;-96
2021/07/17 04:21:11;;;;;;;1.65;1.55;;;;;;;;;;6213146;23;20370;-96
2021/07/17 04:23:40;;;;;;;2.20;1.60;;;;;;;;;;6213350;23;20858;-95
2021/07/17 04:26:10;;;;;;;2.10;1.48;;;;;;;;;;6213372;23;20401;-96
2021/07/17 04:28:42;;;;;;;1.80;1.42;;;;;;;;;;6212976;23;20449;-96
2021/07/17 04:31:12;;;;;;;1.95;1.40;;;;;;;;;;6212689;23;20373;-96
2021/07/17 04:33:40;;;;;;;2.65;1.52;;;;;;;;;;6213411;23;20388;-96
2021/07/17 04:36:13;;;;;;;2.25;1.50;;;;;;;;;;6214928;23;20414;-96
2021/07/17 04:38:40;;;;;;;2.00;1.60;;;;;;;;;;6214644;23;20373;-96
2021/07/17 04:41:16;;;;;;;2.65;1.52;;;;;;;;;;6213462;23;20376;-96
2021/07/17 04:43:49;;;;;;;3.17;1.73;;;;;;;;;;6214025;23;20684;-95
2021/07/17 04:46:17;;;;;;;3.80;2.78;;;;;;;;;;6213205;23;20374;-96
2021/07/17 04:48:48;;;;;;;4.15;2.60;;;;;;;;;;6212839;23;20396;-96
2021/07/17 04:51:17;;;;;;;4.18;3.17;;;;;;;;;;6213231;23;20448;-96
2021/07/17 04:53:49;;;;;;;6.22;3.80;;;;;;;;;;6211394;23;20376;-95
2021/07/17 04:56:19;;;;;;;8.23;5.30;;;;;;;;;;6211709;23;20466;-96
2021/07/17 04:58:47;;;;;;;9.10;6.80;;;;;;;;;;6211357;23;20374;-94
2021/07/17 05:01:21;;;;;;;7.60;5.05;;;;;;;;;;6211613;23;20401;-96
2021/07/17 05:03:51;;;;;;;5.83;3.63;;;;;;;;;;6210712;23;20442;-95
2021/07/17 05:06:18;;;;;;;3.17;2.78;;;;;;;;;;6211033;23;20392;-95
2021/07/17 05:08:51;;;;;;;4.75;2.75;;;;;;;;;;6211542;23;20370;-95
2021/07/17 05:11:18;;;;;;;3.67;2.35;;;;;;;;;;6211612;23;20369;-95
2021/07/17 05:13:45;;;;;;;3.28;2.40;;;;;;;;;;6214935;23;20735;-96
2021/07/17 05:16:16;;;;;;;3.35;2.50;;;;;;;;;;6211897;23;20380;-96
2021/07/17 05:18:45;;;;;;;2.63;2.08;;;;;;;;;;6216490;23;20370;-96
2021/07/17 05:21:15;;;;;;;3.00;2.20;;;;;;;;;;6217433;23;20373;-96
2021/07/17 05:23:47;;;;;;;3.05;2.40;;;;;;;;;;6234246;23;20369;-96
2021/07/17 05:26:14;;;;;;;3.28;2.10;;;;;;;;;;6236258;23;20726;-96
2021/07/17 05:28:44;;;;;;;2.65;2.00;;;;;;;;;;6237726;23;20376;-95
2021/07/17 05:31:13;;;;;;;2.47;2.20;;;;;;;;;;6238677;23;20445;-96
2021/07/17 05:33:41;;;;;;;2.20;1.80;;;;;;;;;;6220339;23;20381;-96
2021/07/17 05:36:10;;;;;;;2.97;1.80;;;;;;;;;;6212618;23;20448;-96
2021/07/17 05:38:37;;;;;;;3.85;1.70;;;;;;;;;;6212534;23;20370;-96
2021/07/17 05:41:04;;;;;;;2.80;1.67;;;;;;;;;;6212136;23;20393;-96
2021/07/17 05:43:31;;;;;;;3.27;2.17;;;;;;;;;;6211671;23;20973;-96
2021/07/17 05:46:01;;;;;;;3.38;2.00;;;;;;;;;;6213387;23;20374;-96
2021/07/17 05:48:35;;;;;;;2.15;1.80;;;;;;;;;;6216064;23;20369;-96
2021/07/17 05:51:02;;;;;;;2.53;1.90;;;;;;;;;;6214281;23;20413;-96
2021/07/17 05:53:29;;;;;;;3.10;1.75;;;;;;;;;;6211490;23;20376;-96
2021/07/17 05:55:57;;;;;;;1.83;1.73;;;;;;;;;;6210723;23;20374;-95
2021/07/17 05:58:24;;;;;;;4.05;2.00;;;;;;;;;;6211702;23;20377;-95
2021/07/17 06:01:00;;;;;;;2.45;1.70;;;;;;;;;;6211361;23;20377;-96
2021/07/17 06:03:30;;;;;;;3.92;1.80;;;;;;;;;;6210833;23;20369;-96
2021/07/17 06:06:06;;;;;;;2.88;2.00;;;;;;;;;;6210614;23;20374;-96
2021/07/17 06:08:35;;;;;;;4.55;1.83;;;;;;;;;;6211184;23;20452;-96
2021/07/17 06:11:02;;;;;;;3.70;1.70;;;;;;;;;;6211295;23;20374;-96
2021/07/17 06:13:45;;;;;;;2.75;1.63;;;;;;;;;;6211145;23;20370;-96
2021/07/17 06:16:14;;;;;;;2.30;1.73;;;;;;;;;;6212915;23;20401;-96
2021/07/17 06:18:46;;;;;;;4.38;2.00;;;;;;;;;;6212611;23;20381;-96
2021/07/17 06:21:17;;;;;;;2.47;1.70;;;;;;;;;;6213238;23;20409;-96
2021/07/17 06:23:49;;;;;;;2.73;1.77;;;;;;;;;;6212638;23;20921;-96
2021/07/17 06:26:16;;;;;;;3.97;2.17;;;;;;;;;;6210931;23;20373;-96
2021/07/17 06:28:49;;;;;;;2.00;1.80;;;;;;;;;;6210858;23;20378;-96
2021/07/17 06:31:19;;;;;;;3.30;2.05;;;;;;;;;;6210679;23;20404;-96
2021/07/17 06:33:59;;;;;;;2.35;1.70;;;;;;;;;;6210909;23;20382;-96
2021/07/17 06:36:32;;;;;;;4.05;1.67;;;;;;;;;;6211114;23;20442;-96
2021/07/17 06:39:02;;;;;;;3.85;2.00;;;;;;;;;;6211537;23;20369;-95
2021/07/17 06:44:21;;;;;;;4.60;2.20;;;;;;;;;;6211029;23;20393;-96
2021/07/17 06:46:48;;;;;;;3.28;1.80;;;;;;;;;;6210908;23;20842;-95
2021/07/17 06:49:24;;;;;;;3.60;1.90;;;;;;;;;;6211552;23;20369;-95
2021/07/17 06:51:58;;;;;;;4.43;2.03;;;;;;;;;;6210963;23;20775;-96
2021/07/17 06:54:27;;;;;;;5.75;2.28;;;;;;;;;;6211304;23;20453;-96
2021/07/17 06:56:57;;;;;;;3.20;1.98;;;;;;;;;;6210666;23;20862;-96
2021/07/17 06:59:29;;;;;;;3.07;2.10;;;;;;;;;;6210794;23;20377;-96
2021/07/17 07:01:59;;;;;;;2.92;2.05;;;;;;;;;;6210629;23;20838;-96
2021/07/17 07:04:33;;;;;;;3.78;1.98;;;;;;;;;;6211204;23;20374;-96
2021/07/17 07:07:09;;;;;;;3.55;2.00;;;;;;;;;;6210971;23;20357;-96
2021/07/17 07:09:36;;;;;;;2.42;2.22;;;;;;;;;;6212093;23;20385;-96
2021/07/17 07:12:07;;;;;;;4.55;2.70;;;;;;;;;;6211702;23;20369;-96
2021/07/17 07:14:39;;;;;;;3.00;2.70;;;;;;;;;;6210927;23;20846;-95
2021/07/17 07:17:25;;;;;;;3.67;3.00;;;;;;;;;;6210560;23;20385;-96
2021/07/17 07:19:58;;;;;;;4.22;3.10;;;;;;;;;;6210878;23;20400;-96
2021/07/17 07:22:27;;;;;;;4.95;3.08;;;;;;;;;;6212494;23;20370;-95
2021/07/17 07:24:57;;;;;;;6.32;3.05;;;;;;;;;;6213061;23;20369;-96
2021/07/17 07:27:42;;;;;;;4.63;3.38;;;;;;;;;;6212497;23;20381;-96
2021/07/17 07:30:12;;;;;;;4.93;3.83;;;;;;;;;;6212101;23;20378;-96
2021/07/17 07:32:42;;;;;;;6.20;3.55;;;;;;;;;;6212619;23;20375;-96
2021/07/17 07:35:20;;;;;;;5.43;3.70;;;;;;;;;;6211530;23;20370;-96
2021/07/17 07:37:52;;;;;;;5.07;3.33;;;;;;;;;;6212105;23;20435;-96
2021/07/17 07:40:24;;;;;;;6.88;3.75;;;;;;;;;;6212825;23;20370;-96
2021/07/17 07:42:55;;;;;;;7.78;3.90;;;;;;;;;;6211942;23;20376;-96
2021/07/17 07:45:26;;;;;;;6.00;3.40;;;;;;;;;;6212876;23;20370;-96
2021/07/17 07:48:06;;;;;;;5.50;3.63;;;;;;;;;;6212508;23;20381;-96
2021/07/17 07:50:33;;;;;;;5.18;3.50;;;;;;;;;;6212479;23;20378;-96
2021/07/17 07:53:11;;;;;;;5.57;3.60;;;;;;;;;;6212209;23;20397;-96
2021/07/17 07:55:38;;;;;;;6.57;3.72;;;;;;;;;;6212711;23;20864;-95
2021/07/17 07:58:08;;;;;;;7.15;4.20;;;;;;;;;;6211603;23;20388;-96
2021/07/17 08:00:41;;;;;;;6.28;4.00;;;;;;;;;;6212512;23;20408;-96
2021/07/17 08:03:16;;;;;;;7.05;3.90;;;;;;;;;;6212189;23;20381;-96
2021/07/17 08:05:45;;;;;;;6.15;4.28;;;;;;;;;;6213247;23;20370;-96
2021/07/17 08:08:16;;;;;;;6.97;3.90;;;;;;;;;;6215275;23;20697;-96
2021/07/17 08:10:46;;;;;;;5.72;3.80;;;;;;;;;;6213423;23;20373;-96
2021/07/17 08:13:18;;;;;;;5.90;3.90;;;;;;;;;;6214093;23;20742;-96
2021/07/17 08:16:02;;;;;;;5.70;3.65;;;;;;;;;;6214133;23;20366;-96
2021/07/17 08:18:42;;;;;;;7.03;3.45;;;;;;;;;;6212579;23;20913;-96
2021/07/17 08:21:13;;;;;;;4.00;3.60;;;;;;;;;;6213413;23;20881;-95
2021/07/17 08:23:44;;;;;;;5.57;3.30;;;;;;;;;;6214239;23;20376;-95
2021/07/17 08:26:13;;;;;;;5.75;3.40;;;;;;;;;;6213411;23;20408;-96
2021/07/17 08:28:53;;;;;;;4.10;3.10;;;;;;;;;;6212819;23;20374;-96
2021/07/17 08:31:21;;;;;;;4.53;3.10;;;;;;;;;;6212280;23;20380;-96
2021/07/17 08:33:54;;;;;;;4.23;3.30;;;;;;;;;;6211965;23;20672;-96
2021/07/17 08:36:56;;;;;;;3.65;3.17;;;;;;;;;;6213695;23;20385;-96
2021/07/17 08:39:27;;;;;;;6.53;3.30;;;;;;;;;;6214055;23;20369;-96
2021/07/17 08:41:58;;;;;;;4.37;2.67;;;;;;;;;;6214085;23;20643;-95
2021/07/17 08:44:32;;;;;;;6.60;2.70;;;;;;;;;;6214708;23;20397;-96
2021/07/17 08:47:11;;;;;;;5.60;2.70;;;;;;;;;;6213803;23;20369;-96
2021/07/17 08:49:41;;;;;;;5.53;2.57;;;;;;;;;;6215992;23;20418;-96
2021/07/17 08:52:20;;;;;;;6.20;2.30;;;;;;;;;;6217694;23;20384;-96
2021/07/17 08:55:23;;;;;;;3.58;2.10;;;;;;;;;;6215841;23;20370;-96
2021/07/17 08:58:01;;;;;;;4.10;2.10;;;;;;;;;;6215442;23;20382;-96
2021/07/17 09:00:56;;;;;;;6.03;2.30;;;;;;;;;;6217538;23;20365;-96
2021/07/17 09:03:26;;;;;;;3.55;2.10;;;;;;;;;;6215665;23;20397;-96
2021/07/17 09:06:04;;;;;;;5.20;2.10;;;;;;;;;;6214719;23;20378;-95
2021/07/17 09:08:42;;;;;;;2.35;2.00;;;;;;;;;;6209758;23;20374;-96
2021/07/17 09:11:15;;;;;;;3.33;2.20;;;;;;;;;;6214856;23;20699;-95
2021/07/17 09:13:43;;;;;;;3.47;1.70;;;;;;;;;;6215618;23;20827;-96
2021/07/17 09:16:38;;;;;;;2.33;1.80;;;;;;;;;;6217695;23;20868;-96
2021/07/17 09:19:11;;;;;;;2.05;1.80;;;;;;;;;;6217431;23;20768;-96
2021/07/17 09:21:49;;;;;;;3.63;1.80;;;;;;;;;;6218971;23;20370;-95
2021/07/17 09:24:36;;;;;;;;;;;;;;;;;;;;;
2021/07/17 09:27:29;;;;;;;2.60;1.88;;;;;;;;;;6217528;23;20377;-94
2021/07/17 09:30:06;;;;;;;3.63;2.05;;;;;;;;;;6220544;23;20855;-94
2021/07/17 09:32:42;;;;;;;3.03;2.05;;;;;;;;;;6219077;23;20432;-95
2021/07/17 09:35:22;;;;;;;2.97;2.00;;;;;;;;;;6216779;23;20408;-95
2021/07/17 09:38:01;;;;;;;3.60;2.30;;;;;;;;;;6217999;23;20393;-95
2021/07/17 09:43:38;;;;;;;3.80;2.58;;;;;;;;;;6214451;23;20587;-96
2021/07/17 09:46:21;;;;;;;3.28;2.10;;;;;;;;;;6211465;23;20448;-95
2021/07/17 09:48:56;;;;;;;2.63;2.35;;;;;;;;;;6213307;23;20365;-96
2021/07/17 09:51:29;;;;;;;4.27;2.37;;;;;;;;;;6210829;23;20376;-96
2021/07/17 09:54:02;;;;;;;4.57;2.60;;;;;;;;;;6210886;23;20373;-95
2021/07/17 09:57:03;;;;;;;4.68;2.53;;;;;;;;;;6211239;23;20374;-96
2021/07/17 09:59:38;;;;;;;6.65;2.60;;;;;;;;;;6210930;23;20460;-96
2021/07/17 10:02:30;;;;;;;4.63;2.50;;;;;;;;;;6211057;23;20526;-95
2021/07/17 10:05:14;;;;;;;;;;;;;;;;;;;;;
2021/07/17 10:08:05;;;;;;;3.78;2.42;;;;;;;;;;6230692;23;20350;-95
2021/07/17 10:10:41;;;;;;;3.37;2.40;;;;;;;;;;6235473;23;20362;-95
2021/07/17 10:13:09;;;;;;;3.90;2.50;;;;;;;;;;6236271;23;20357;-96
2021/07/17 10:16:07;;;;;;;5.32;2.50;;;;;;;;;;6237878;23;20362;-95
2021/07/17 10:18:37;;;;;;;4.22;2.40;;;;;;;;;;6237940;23;20444;-95
2021/07/17 10:21:05;;;;;;;4.30;2.53;;;;;;;;;;6217504;23;20758;-96
2021/07/17 10:23:41;;;;;;;4.55;2.53;;;;;;;;;;6210864;23;20378;-95
2021/07/17 10:26:24;;;;;;;;;;;;;;;;;;;;;
2021/07/17 10:29:00;;;;;;;3.55;2.80;;;;;;;;;;6209568;23;20440;-96
2021/07/17 10:31:42;;;;;;;3.20;2.47;;;;;;;;;;6210927;23;20488;-95
2021/07/17 10:34:32;;;;;;;2.47;1.83;;;;;;;;;;6211026;23;20379;-95
2021/07/17 10:37:21;;;;;;;1.80;1.60;;;;;;;;;;6199648;23;20416;-96
2021/07/17 10:40:12;;;;;;;2.75;1.70;;;;;;;;;;6218511;23;20370;-96
2021/07/17 10:42:52;;;;;;;2.97;2.47;;;;;;;;;;6201906;23;20382;-96
2021/07/17 10:45:51;;;;;;;6.03;2.75;;;;;;;;;;6213233;23;20372;-96
2021/07/17 10:48:54;;;;;;;3.97;3.15;;;;;;;;;;6212157;23;20369;-96
2021/07/17 10:51:52;;;;;;;4.22;2.85;;;;;;;;;;6212794;23;20373;-96
2021/07/17 10:54:44;;;;;;;3.70;2.15;;;;;;;;;;6213158;23;20400;-96
2021/07/17 10:57:28;;;;;;;2.17;1.80;;;;;;;;;;6133018;23;20369;-96
2021/07/17 11:00:05;;;;;;;3.50;2.20;;;;;;;;;;6214656;23;20369;-96
2021/07/17 11:02:45;;;;;;;4.53;2.75;;;;;;;;;;6214787;23;20413;-96
2021/07/17 11:05:45;;;;;;;4.40;3.10;;;;;;;;;;6213865;23;20774;-96
2021/07/17 11:08:52;;;;;;;4.93;3.35;;;;;;;;;;6213818;23;20405;-96
2021/07/17 11:12:11;;;;;;;6.63;3.72;;;;;;;;;;6207533;23;20366;-96
2021/07/17 11:17:56;;;;;;;7.45;4.07;;;;;;;;;;6210583;23;20714;-96
2021/07/17 11:20:46;;;;;;;5.97;3.85;;;;;;;;;;6214701;23;20570;-96
2021/07/17 11:23:54;;;;;;;8.00;3.80;;;;;;;;;;6213874;23;20799;-96
2021/07/17 11:29:45;;;;;;;6.65;4.47;;;;;;;;;;6186016;23;20381;-96
2021/07/17 11:32:39;;;;;;;5.60;3.53;;;;;;;;;;6213991;23;20891;-96
2021/07/17 11:35:28;;;;;;;5.35;3.20;;;;;;;;;;6206517;23;20370;-96
2021/07/17 11:38:17;;;;;;;4.57;3.17;;;;;;;;;;6204612;23;20846;-96
2021/07/17 11:40:53;;;;;;;3.92;2.90;;;;;;;;;;6213883;23;20369;-96
2021/07/17 11:43:38;;;;;;;4.93;2.40;;;;;;;;;;6213967;23;20423;-96
2021/07/17 11:46:18;;;;;;;;;;;;;;;;;;;;;
2021/07/17 11:49:13;;;;;;;2.20;1.83;;;;;;;;;;6214576;23;20381;-96
2021/07/17 11:52:03;;;;;;;3.30;2.60;;;;;;;;;;6183007;23;20401;-96
2021/07/17 11:55:37;;;;;;;3.87;2.60;;;;;;;;;;6216353;23;20369;-96
2021/07/17 11:58:25;;;;;;;2.97;2.67;;;;;;;;;;6215993;23;20385;-96
2021/07/17 12:01:25;;;;;;;3.75;2.97;;;;;;;;;;6214827;23;20374;-96
2021/07/17 12:07:04;;;;;;;5.13;3.50;;;;;;;;;;6163883;23;20459;-96
2021/07/17 12:19:05;;;;;;;6.05;3.42;;;;;;;;;;6215263;23;20385;-95
2021/07/17 12:22:06;;;;;;;5.40;3.30;;;;;;;;;;6220128;23;20370;-95
2021/07/17 12:25:16;;;;;;;4.05;3.00;;;;;;;;;;6219285;23;20461;-95
2021/07/17 12:34:23;;;;;;;4.85;3.30;;;;;;;;;;6190866;23;20370;-96
2021/07/17 12:37:05;;;;;;;5.57;3.03;;;;;;;;;;6220615;23;20382;-96
2021/07/17 12:39:52;;;;;;;4.50;3.10;;;;;;;;;;6224890;23;20393;-96
2021/07/17 12:42:38;;;;;;;4.60;3.08;;;;;;;;;;6227536;23;20374;-96
2021/07/17 12:45:52;;;;;;;3.50;2.92;;;;;;;;;;6228193;23;20390;-96
2021/07/17 12:48:47;;;;;;;4.38;3.17;;;;;;;;;;6216598;23;20366;-95
2021/07/17 12:51:28;;;;;;;4.43;3.10;;;;;;;;;;6226756;23;20381;-96
2021/07/17 12:54:20;;;;;;;;;;;;;;;;;;;;;
2021/07/17 12:57:10;;;;;;;3.45;2.95;;;;;;;;;;6222071;23;20358;-96
2021/07/17 13:00:06;;;;;;;4.20;3.00;;;;;;;;;;6218867;23;20453;-96
2021/07/17 13:02:39;;;;;;;3.35;2.75;;;;;;;;;;6218178;23;20377;-96
2021/07/17 13:10:57;;;;;;;2.67;2.40;;;;;;;;;;6201715;23;20842;-96
2021/07/17 13:13:50;;;;;;;4.28;2.50;;;;;;;;;;6217093;23;20377;-96
2021/07/17 13:16:48;;;;;;;2.58;2.17;;;;;;;;;;6217865;23;20420;-96
2021/07/17 13:19:37;;;;;;;;;;;;;;;;;;;;;
2021/07/17 13:22:15;;;;;;;3.60;2.20;;;;;;;;;;6218066;23;20354;-96
2021/07/17 13:25:03;;;;;;;3.83;2.60;;;;;;;;;;6217421;23;20401;-96
2021/07/17 13:27:48;;;;;;;3.65;2.40;;;;;;;;;;6213997;23;20366;-96
2021/07/17 13:30:43;;;;;;;;;;;;;;;;;;;;;
2021/07/17 13:36:10;;;;;;;3.08;2.05;;;;;;;;;;6179492;23;20747;-96
2021/07/17 13:38:51;;;;;;;2.65;2.15;;;;;;;;;;6214659;23;20381;-96
2021/07/17 13:44:48;;;;;;;3.20;2.42;;;;;;;;;;6215713;23;20418;-96
2021/07/17 13:50:27;;;;;;;5.28;2.90;;;;;;;;;;6201240;23;20476;-96
2021/07/17 13:53:28;;;;;;;3.17;2.43;;;;;;;;;;6214085;23;20484;-96
2021/07/17 13:59:17;;;;;;;2.72;2.50;;;;;;;;;;6209971;23;20384;-96
2021/07/17 14:02:01;;;;;;;3.00;2.40;;;;;;;;;;6213976;23;20369;-95
2021/07/17 14:04:54;;;;;;;2.70;2.50;;;;;;;;;;6217966;23;20374;-96
2021/07/17 14:07:44;;;;;;;3.03;2.38;;;;;;;;;;6218578;23;20376;-94
2021/07/17 14:10:50;;;;;;;3.05;2.45;;;;;;;;;;6220211;23;20657;-96
2021/07/17 14:13:46;;;;;;;3.63;2.30;;;;;;;;;;6219717;23;20370;-96
2021/07/17 14:23:10;;;;;;;2.93;2.23;;;;;;;;;;6218588;23;20386;-96
2021/07/17 14:33:05;;;;;;;3.03;2.07;;;;;;;;;;6151339;23;20377;-95
2021/07/17 14:35:50;;;;;;;3.65;2.60;;;;;;;;;;6219623;23;20370;-96
2021/07/17 14:39:12;;;;;;;2.55;2.35;;;;;;;;;;6220256;23;20369;-95
2021/07/17 14:42:06;;;;;;;4.72;3.03;;;;;;;;;;6209851;23;20380;-96
2021/07/17 14:47:48;;;;;;;5.67;3.30;;;;;;;;;;6213364;23;20476;-96
2021/07/17 14:53:36;;;;;;;4.50;3.20;;;;;;;;;;6225715;23;20377;-96
2021/07/17 15:12:02;;;;;;;2.80;2.60;;;;;;;;;;6192128;23;20437;-96
2021/07/17 15:15:16;;;;;;;;;;;;;;;;;;;;;
2021/07/17 15:18:08;;;;;;;3.03;2.58;;;;;;;;;;6214069;23;20377;-96
2021/07/17 15:27:09;;;;;;;4.93;3.35;;;;;;;;;;6214552;23;20390;-96
2021/07/17 15:33:11;;;;;;;2.65;2.42;;;;;;;;;;6194269;23;20366;-96
2021/07/17 15:36:21;;;;;;;3.38;2.45;;;;;;;;;;6214090;23;20405;-96
2021/07/17 15:39:30;;;;;;;4.57;2.30;;;;;;;;;;6152814;23;20366;-96
2021/07/17 15:48:44;;;;;;;3.35;2.03;;;;;;;;;;6212365;23;20358;-96
2021/07/17 15:58:24;;;;;;;2.00;1.50;;;;;;;;;;6168296;23;20366;-96
2021/07/17 16:04:45;;;;;;;2.10;1.90;;;;;;;;;;6213965;23;20393;-96
2021/07/17 16:17:35;;;;;;;3.03;2.60;;;;;;;;;;6171180;23;20377;-95
2021/07/17 16:29:50;;;;;;;2.25;1.83;;;;;;;;;;6129230;23;20416;-96
2021/07/17 16:52:22;;;;;;;;;;;;;;;;;;;;;
2021/07/17 16:58:34;;;;;;;1.70;1.60;;;;;;;;;;6096253;23;20412;-95
2021/07/17 18:20:52;;;;;;;3.25;2.50;;;;;;;;;;6203509;23;20455;-96
2021/07/17 18:23:21;;;;;;;3.03;2.40;;;;;;;;;;6089838;23;20365;-89
2021/07/17 18:25:47;;;;;;;3.53;2.60;;;;;;;;;;6089147;23;20817;-89
2021/07/17 18:28:14;;;;;;;3.10;2.40;;;;;;;;;;6089730;23;20415;-88
2021/07/17 18:30:43;;;;;;;3.33;2.80;;;;;;;;;;6059958;23;20363;-88
2021/07/17 18:33:10;;;;;;;3.35;2.60;;;;;;;;;;6060496;23;20751;-88
2021/07/17 18:35:37;;;;;;;5.05;2.80;;;;;;;;;;6061061;23;20374;-89
2021/07/17 18:38:04;;;;;;;3.92;2.80;;;;;;;;;;6060220;23;20417;-89
2021/07/17 18:40:33;;;;;;;2.60;2.40;;;;;;;;;;6060613;23;20386;-89
2021/07/17 18:43:00;;;;;;;2.88;2.60;;;;;;;;;;6060117;23;20376;-89
2021/07/17 18:45:32;;;;;;;4.13;2.78;;;;;;;;;;6060975;23;20370;-89
2021/07/17 18:48:00;;;;;;;3.72;3.03;;;;;;;;;;6060501;23;20691;-88
2021/07/17 18:50:27;;;;;;;3.30;3.00;;;;;;;;;;6061046;23;20370;-89
2021/07/17 18:52:54;;;;;;;4.55;3.10;;;;;;;;;;6060164;23;20926;-89
2021/07/17 18:55:21;;;;;;;4.63;3.08;;;;;;;;;;6060897;23;20366;-89
2021/07/17 18:57:49;;;;;;;4.65;3.00;;;;;;;;;;6060787;23;20373;-89
2021/07/17 19:00:20;;;;;;;3.83;3.00;;;;;;;;;;6061099;23;20386;-89
2021/07/17 19:02:50;;;;;;;4.32;3.25;;;;;;;;;;6061170;23;20370;-89
2021/07/17 19:05:18;;;;;;;4.47;3.10;;;;;;;;;;6061082;23;20373;-89
2021/07/17 19:07:45;;;;;;;4.63;3.50;;;;;;;;;;6060700;23;20433;-88
2021/07/17 19:10:13;;;;;;;4.07;3.30;;;;;;;;;;6060843;23;20419;-88
2021/07/17 19:12:40;;;;;;;3.88;3.10;;;;;;;;;;6060636;23;20438;-89
2021/07/17 19:15:11;;;;;;;4.73;3.30;;;;;;;;;;6060669;23;20833;-89
2021/07/17 19:17:39;;;;;;;3.92;3.53;;;;;;;;;;6061531;23;20450;-89
2021/07/17 19:20:08;;;;;;;4.82;3.22;;;;;;;;;;6061796;23;20418;-89
2021/07/17 19:22:35;;;;;;;5.30;3.40;;;;;;;;;;6062499;23;20374;-88
2021/07/17 19:25:04;;;;;;;4.68;3.47;;;;;;;;;;6061952;23;20580;-88
2021/07/17 19:27:31;;;;;;;5.78;3.30;;;;;;;;;;6062672;23;20370;-89
2021/07/17 19:29:58;;;;;;;5.38;4.32;;;;;;;;;;6061971;23;20374;-89
2021/07/17 19:32:26;;;;;;;5.77;4.20;;;;;;;;;;6062425;23;20442;-89
2021/07/17 19:34:53;;;;;;;5.35;4.78;;;;;;;;;;6062177;23;20422;-89
2021/07/17 19:37:20;;;;;;;6.60;4.33;;;;;;;;;;6063070;23;20374;-89
2021/07/17 19:39:47;;;;;;;5.00;4.50;;;;;;;;;;6061889;23;20400;-88
2021/07/17 19:42:14;;;;;;;6.93;4.87;;;;;;;;;;6062185;23;20449;-89
2021/07/17 19:44:41;;;;;;;6.10;4.57;;;;;;;;;;6062051;23;20374;-88
2021/07/17 19:47:08;;;;;;;5.75;4.40;;;;;;;;;;6061846;23;20430;-89
2021/07/17 19:49:36;;;;;;;5.30;4.57;;;;;;;;;;6062129;23;20885;-89
2021/07/17 19:52:04;;;;;;;5.78;4.70;;;;;;;;;;6062263;23;20378;-88
2021/07/17 19:54:33;;;;;;;5.40;4.60;;;;;;;;;;6062095;23;20914;-89
2021/07/17 19:57:00;;;;;;;5.53;4.90;;;;;;;;;;6061983;23;20362;-88
2021/07/17 19:59:27;;;;;;;7.47;5.03;;;;;;;;;;6062433;23;20362;-89
2021/07/17 20:01:54;;;;;;;6.90;5.50;;;;;;;;;;6061537;23;20394;-88
2021/07/17 20:04:21;;;;;;;9.00;5.30;;;;;;;;;;6062153;23;20416;-88
2021/07/17 20:06:49;;;;;;;9.35;5.50;;;;;;;;;;6061646;23;20836;-89
2021/07/17 20:09:16;;;;;;;7.32;5.40;;;;;;;;;;6061748;23;20370;-88
2021/07/17 20:11:43;;;;;;;7.22;5.20;;;;;;;;;;6061913;23;20887;-89
2021/07/17 20:14:09;;;;;;;5.53;4.90;;;;;;;;;;6061954;23;20453;-88
2021/07/17 20:16:36;;;;;;;5.80;5.20;;;;;;;;;;6062609;23;20374;-89